Time;durP1;ratioP1;P1;durP2;ratioP2;P2;SDS_P1;SDS_P2;PMS_P1;PMS_P2;Temp;Humidity;BMP_temperature;BMP_pressure;BME280_temperature;BME280_humidity;BME280_pressure;Samples;Min_cycle;Max_cycle;Signal;HPM_P1;HPM_P2
2021/12/29 00:01:14;;;;;;;6.90;1.48;;;8.90;76.20;;;;;;5032510;28;20192;-83
2021/12/29 00:03:42;;;;;;;8.52;1.40;;;9.00;75.70;;;;;;5029284;28;20646;-82
2021/12/29 00:06:10;;;;;;;7.90;1.60;;;9.00;75.70;;;;;;5034907;28;20655;-85
2021/12/29 00:08:37;;;;;;;6.80;1.40;;;9.10;75.10;;;;;;5026004;28;20200;-87
2021/12/29 00:11:06;;;;;;;3.92;1.40;;;9.10;74.60;;;;;;5021157;28;20222;-78
2021/12/29 00:13:33;;;;;;;9.75;1.75;;;9.00;74.40;;;;;;5015030;28;20192;-85
2021/12/29 00:16:01;;;;;;;5.68;1.33;;;9.10;74.40;;;;;;5014621;28;20228;-76
2021/12/29 00:18:30;;;;;;;3.28;1.33;;;9.10;74.90;;;;;;5032306;28;20535;-87
2021/12/29 00:20:57;;;;;;;5.43;1.70;;;9.10;74.30;;;;;;5027134;28;20227;-87
2021/12/29 00:23:26;;;;;;;4.40;1.40;;;9.10;74.60;;;;;;5031382;28;20241;-87
2021/12/29 00:25:54;;;;;;;7.95;1.70;;;9.10;74.80;;;;;;5030209;28;20192;-86
2021/12/29 00:28:21;;;;;;;8.35;1.85;;;9.10;74.30;;;;;;5012698;28;20286;-83
2021/12/29 00:30:49;;;;;;;8.23;1.58;;;9.10;74.40;;;;;;5018415;28;20258;-84
2021/12/29 00:33:16;;;;;;;10.73;2.08;;;9.10;74.30;;;;;;5028239;28;20207;-84
2021/12/29 00:35:44;;;;;;;5.25;2.42;;;9.10;73.90;;;;;;5034363;28;20661;-78
2021/12/29 00:38:12;;;;;;;10.98;2.00;;;9.10;74.10;;;;;;5049924;28;20207;-86
2021/12/29 00:40:41;;;;;;;8.48;1.90;;;9.10;74.50;;;;;;5047650;28;20199;-83
2021/12/29 00:43:09;;;;;;;9.80;1.90;;;9.20;74.40;;;;;;5051713;28;20202;-83
2021/12/29 00:45:38;;;;;;;11.15;1.70;;;9.20;74.20;;;;;;5050989;28;20997;-84
2021/12/29 00:48:10;;;;;;;7.10;2.22;;;9.20;74.30;;;;;;5052048;28;20191;-83
2021/12/29 00:50:38;;;;;;;5.05;1.80;;;9.20;74.50;;;;;;5049689;28;20284;-83
2021/12/29 00:53:06;;;;;;;2.60;1.40;;;9.20;74.40;;;;;;5048178;28;20251;-83
2021/12/29 00:55:33;;;;;;;6.00;3.25;;;9.20;74.30;;;;;;5051103;28;20210;-86
2021/12/29 00:58:03;;;;;;;7.13;1.83;;;9.20;74.70;;;;;;5032264;28;20195;-86
2021/12/29 01:00:30;;;;;;;9.27;1.40;;;9.20;75.20;;;;;;5031304;28;20203;-85
2021/12/29 01:02:57;;;;;;;4.00;1.85;;;9.20;75.10;;;;;;5051748;28;20657;-87
2021/12/29 01:05:25;;;;;;;8.52;1.83;;;9.20;75.10;;;;;;5051895;28;20525;-85
2021/12/29 01:07:52;;;;;;;7.00;1.55;;;9.20;75.00;;;;;;5032252;28;20262;-82
2021/12/29 01:10:19;;;;;;;6.05;1.63;;;9.20;75.00;;;;;;5032025;28;20192;-83
2021/12/29 01:12:53;;;;;;;3.30;1.98;;;9.20;75.00;;;;;;5036443;28;20195;-84
2021/12/29 01:15:27;;;;;;;4.85;1.33;;;9.20;75.10;;;;;;5032763;28;20281;-84
2021/12/29 01:17:56;;;;;;;8.90;1.88;;;9.10;75.20;;;;;;5036461;28;20201;-84
2021/12/29 01:20:23;;;;;;;9.50;1.95;;;9.20;75.40;;;;;;5032600;28;20195;-84
2021/12/29 01:22:51;;;;;;;15.20;2.33;;;9.20;75.30;;;;;;5032786;28;20202;-86
2021/12/29 01:25:19;;;;;;;10.00;2.20;;;9.20;75.30;;;;;;5032494;28;20195;-85
2021/12/29 01:27:47;;;;;;;7.53;1.40;;;9.20;75.50;;;;;;5032546;28;20215;-85
2021/12/29 01:30:15;;;;;;;3.08;1.67;;;9.20;75.30;;;;;;5033411;28;20187;-85
2021/12/29 01:32:43;;;;;;;7.32;1.85;;;9.20;75.70;;;;;;5032536;28;20296;-85
2021/12/29 01:35:12;;;;;;;4.63;1.20;;;9.20;75.70;;;;;;5048190;28;20244;-86
2021/12/29 01:37:40;;;;;;;5.88;1.90;;;9.20;75.60;;;;;;5052424;28;20194;-84
2021/12/29 01:40:11;;;;;;;9.68;2.35;;;9.20;75.90;;;;;;5035714;28;20278;-84
2021/12/29 01:42:38;;;;;;;5.18;1.52;;;9.20;75.70;;;;;;5032439;28;20360;-84
2021/12/29 01:45:06;;;;;;;10.48;2.40;;;9.20;76.00;;;;;;5046067;28;20205;-84
2021/12/29 01:47:34;;;;;;;8.65;2.55;;;9.20;75.60;;;;;;5052452;28;20187;-84
2021/12/29 01:50:04;;;;;;;6.82;1.50;;;9.20;75.80;;;;;;5039872;28;20194;-83
2021/12/29 01:52:37;;;;;;;10.98;2.10;;;9.20;76.00;;;;;;5036298;28;20661;-84
2021/12/29 01:55:05;;;;;;;6.13;1.67;;;9.20;76.00;;;;;;5048711;28;20249;-82
2021/12/29 01:57:33;;;;;;;11.20;2.53;;;9.20;76.20;;;;;;5054521;28;20230;-82
2021/12/29 02:00:01;;;;;;;8.23;2.05;;;9.20;76.30;;;;;;5036374;28;20196;-82
2021/12/29 02:02:29;;;;;;;7.05;2.00;;;9.20;76.50;;;;;;5036174;28;20203;-81
2021/12/29 02:04:56;;;;;;;7.20;2.03;;;9.20;76.50;;;;;;5056153;28;20213;-83
2021/12/29 02:07:24;;;;;;;5.50;1.63;;;9.20;76.70;;;;;;5056405;28;20187;-84
2021/12/29 02:09:51;;;;;;;7.30;2.00;;;9.20;76.70;;;;;;5036502;28;20234;-84
2021/12/29 02:12:20;;;;;;;4.78;1.40;;;9.20;76.70;;;;;;5035961;28;20223;-84
2021/12/29 02:14:47;;;;;;;4.90;1.70;;;9.20;76.70;;;;;;5047254;28;20198;-84
2021/12/29 02:17:15;;;;;;;7.78;2.47;;;9.20;76.90;;;;;;5035986;28;20195;-84
2021/12/29 02:19:45;;;;;;;6.65;2.30;;;9.20;77.00;;;;;;5052214;28;20256;-84
2021/12/29 02:22:28;;;;;;;7.57;1.55;;;9.10;76.90;;;;;;5046646;28;20580;-84
2021/12/29 02:25:07;;;;;;;4.40;1.50;;;9.10;77.20;;;;;;5035863;28;20281;-79
2021/12/29 02:27:37;;;;;;;10.05;1.73;;;9.20;77.00;;;;;;5046736;28;20183;-83
2021/12/29 02:30:06;;;;;;;6.72;1.67;;;9.20;77.10;;;;;;5055632;28;20282;-83
2021/12/29 02:32:34;;;;;;;9.95;1.70;;;9.20;77.10;;;;;;5045036;28;20217;-81
2021/12/29 02:35:01;;;;;;;2.42;1.40;;;9.20;77.50;;;;;;5035792;28;20200;-84
2021/12/29 02:37:29;;;;;;;3.72;1.20;;;9.20;77.70;;;;;;5044261;28;20191;-83
2021/12/29 02:39:57;;;;;;;3.20;0.80;;;9.20;77.70;;;;;;5055549;28;20213;-83
2021/12/29 02:42:28;;;;;;;4.70;1.45;;;9.20;77.70;;;;;;5047589;28;20183;-84
2021/12/29 02:44:55;;;;;;;3.13;1.17;;;9.30;78.10;;;;;;5035373;28;20199;-83
2021/12/29 02:47:22;;;;;;;4.30;1.02;;;9.30;78.50;;;;;;5041870;28;20280;-84
2021/12/29 02:49:50;;;;;;;5.45;1.38;;;9.30;78.80;;;;;;5055368;28;20199;-84
2021/12/29 02:52:19;;;;;;;3.40;1.20;;;9.30;79.30;;;;;;5049185;28;20516;-83
2021/12/29 02:54:50;;;;;;;3.47;1.00;;;9.40;79.30;;;;;;5036346;28;20183;-84
2021/12/29 02:57:18;;;;;;;3.55;0.95;;;9.40;79.60;;;;;;5039485;28;20236;-84
2021/12/29 02:59:45;;;;;;;3.92;0.90;;;9.40;80.50;;;;;;5054823;28;20633;-83
2021/12/29 03:02:12;;;;;;;2.05;0.93;;;9.30;81.80;;;;;;5050992;28;20211;-84
2021/12/29 03:04:40;;;;;;;3.20;1.20;;;9.30;82.30;;;;;;5035158;28;20199;-84
2021/12/29 03:07:08;;;;;;;3.95;0.93;;;9.20;83.20;;;;;;5036697;28;20538;-84
2021/12/29 03:09:35;;;;;;;7.22;1.30;;;9.20;83.80;;;;;;5054506;28;20191;-83
2021/12/29 03:12:07;;;;;;;3.42;1.10;;;9.20;84.10;;;;;;5053943;28;20779;-85
2021/12/29 03:14:34;;;;;;;5.13;1.20;;;9.10;84.50;;;;;;5047567;28;20653;-84
2021/12/29 03:17:01;;;;;;;3.25;0.90;;;9.10;84.90;;;;;;5054556;28;20197;-84
2021/12/29 03:19:28;;;;;;;2.67;1.00;;;9.00;85.80;;;;;;5054558;28;20183;-84
2021/12/29 03:21:55;;;;;;;3.45;0.90;;;8.90;86.00;;;;;;5052273;28;20222;-85
2021/12/29 03:24:23;;;;;;;8.77;1.50;;;8.90;86.60;;;;;;5034864;28;20200;-85
2021/12/29 03:26:50;;;;;;;4.90;1.50;;;8.90;86.80;;;;;;5035040;28;20227;-84
2021/12/29 03:29:18;;;;;;;3.03;0.93;;;8.90;86.90;;;;;;5054656;28;20756;-84
2021/12/29 03:31:46;;;;;;;7.43;1.63;;;8.80;87.40;;;;;;5054179;28;20218;-84
2021/12/29 03:34:15;;;;;;;1.80;0.80;;;8.80;88.30;;;;;;5053948;28;20221;-84
2021/12/29 03:36:42;;;;;;;4.13;1.23;;;8.70;88.70;;;;;;5054527;28;20202;-84
2021/12/29 03:39:10;;;;;;;2.00;0.80;;;8.60;89.30;;;;;;5033333;28;20274;-84
2021/12/29 03:41:38;;;;;;;5.85;1.40;;;8.60;90.00;;;;;;5048109;28;20593;-85
2021/12/29 03:44:06;;;;;;;8.02;1.60;;;8.60;90.50;;;;;;5053610;28;20249;-83
2021/12/29 03:46:39;;;;;;;4.95;1.10;;;8.50;90.50;;;;;;5038170;28;20278;-81
2021/12/29 03:49:06;;;;;;;8.45;1.27;;;8.60;90.90;;;;;;5033563;28;20199;-84
2021/12/29 03:51:33;;;;;;;2.80;0.98;;;8.60;90.60;;;;;;5047238;28;20241;-82
2021/12/29 03:54:04;;;;;;;4.60;1.08;;;8.60;90.70;;;;;;5053802;28;20237;-83
2021/12/29 03:56:31;;;;;;;11.32;1.80;;;8.50;90.90;;;;;;5039762;28;20195;-82
2021/12/29 03:58:58;;;;;;;4.05;1.10;;;8.50;91.00;;;;;;5033410;28;20276;-84
2021/12/29 04:01:26;;;;;;;4.00;1.40;;;8.50;91.00;;;;;;5034290;28;20188;-84
2021/12/29 04:03:55;;;;;;;4.72;1.10;;;8.40;90.90;;;;;;5033554;28;20191;-84
2021/12/29 04:06:22;;;;;;;2.67;1.38;;;8.50;91.10;;;;;;5046391;28;20194;-84
2021/12/29 04:08:51;;;;;;;5.80;1.13;;;8.40;91.30;;;;;;5053429;28;20210;-85
2021/12/29 04:11:20;;;;;;;5.75;1.48;;;8.40;91.30;;;;;;5040164;28;20231;-85
2021/12/29 04:13:51;;;;;;;7.25;1.50;;;8.40;91.30;;;;;;5032584;28;20231;-84
2021/12/29 04:16:19;;;;;;;3.55;1.05;;;8.40;91.20;;;;;;5045509;28;20542;-78
2021/12/29 04:19:06;;;;;;;4.97;1.30;;;8.40;91.10;;;;;;5053623;28;20229;-85
2021/12/29 04:21:36;;;;;;;6.50;1.10;;;8.40;90.80;;;;;;5039951;28;20278;-84
2021/12/29 04:24:04;;;;;;;3.63;2.55;;;8.40;90.80;;;;;;5034120;28;20192;-85
2021/12/29 04:26:33;;;;;;;6.45;1.33;;;8.40;91.00;;;;;;5045702;28;20187;-84
2021/12/29 04:29:00;;;;;;;5.70;1.50;;;8.40;91.00;;;;;;5053385;28;20191;-84
2021/12/29 04:31:27;;;;;;;4.95;1.20;;;8.40;91.10;;;;;;5041451;28;20194;-86
2021/12/29 04:33:54;;;;;;;3.15;1.10;;;8.50;91.50;;;;;;5033574;28;20662;-86
2021/12/29 04:36:24;;;;;;;6.97;1.40;;;8.50;91.30;;;;;;5043341;28;20191;-84
2021/12/29 04:38:53;;;;;;;4.55;1.98;;;8.50;91.20;;;;;;5053512;28;20199;-85
2021/12/29 04:41:20;;;;;;;2.50;1.30;;;8.40;91.00;;;;;;5043085;28;20183;-85
2021/12/29 04:43:47;;;;;;;3.35;1.40;;;8.40;90.80;;;;;;5033405;28;20196;-85
2021/12/29 04:46:17;;;;;;;5.00;1.40;;;8.40;90.90;;;;;;5033437;28;20191;-84
2021/12/29 04:48:50;;;;;;;4.70;0.93;;;8.40;90.90;;;;;;5033167;28;20197;-85
2021/12/29 04:51:35;;;;;;;4.90;1.15;;;8.30;90.60;;;;;;5033342;28;20211;-85
2021/12/29 04:56:50;;;;;;;4.50;1.40;;;8.30;90.30;;;;;;5043529;28;20565;-85
2021/12/29 04:59:18;;;;;;;3.47;1.10;;;8.30;90.30;;;;;;5052861;28;20215;-85
2021/12/29 05:01:45;;;;;;;4.20;1.20;;;8.40;90.10;;;;;;5041861;28;20199;-85
2021/12/29 05:04:22;;;;;;;5.20;1.20;;;8.40;90.10;;;;;;5033147;28;20593;-85
2021/12/29 05:09:51;;;;;;;4.10;1.00;;;8.40;90.10;;;;;;5053056;28;20547;-84
2021/12/29 05:12:19;;;;;;;6.00;1.48;;;8.50;90.00;;;;;;5038504;28;20305;-84
2021/12/29 05:15:10;;;;;;;3.65;1.00;;;8.50;89.40;;;;;;5030701;28;20605;-83
2021/12/29 05:20:25;;;;;;;5.78;1.23;;;8.50;89.30;;;;;;5031749;28;20683;-83
2021/12/29 05:22:53;;;;;;;2.75;1.00;;;8.50;89.10;;;;;;5044552;28;20182;-83
2021/12/29 05:25:21;;;;;;;2.35;1.08;;;8.60;90.00;;;;;;5032320;28;20282;-82
2021/12/29 05:27:49;;;;;;;3.35;1.13;;;8.60;88.90;;;;;;5032732;28;20192;-83
2021/12/29 05:30:17;;;;;;;3.67;1.00;;;8.60;88.60;;;;;;5048014;28;20190;-83
2021/12/29 05:32:48;;;;;;;7.72;1.20;;;8.60;89.40;;;;;;5052511;28;20218;-83
2021/12/29 05:35:16;;;;;;;7.03;1.20;;;8.70;88.30;;;;;;5037215;28;20196;-84
2021/12/29 05:37:44;;;;;;;4.55;1.00;;;8.60;88.30;;;;;;5032691;28;20195;-83
2021/12/29 05:40:15;;;;;;;3.60;1.30;;;8.70;88.00;;;;;;5045912;28;20699;-83
2021/12/29 05:42:44;;;;;;;6.65;2.25;;;8.70;88.00;;;;;;5052687;28;20191;-83
2021/12/29 05:45:14;;;;;;;3.35;0.90;;;8.70;88.10;;;;;;5037900;28;20195;-83
2021/12/29 05:47:41;;;;;;;2.90;1.33;;;8.70;88.10;;;;;;5032460;28;20192;-84
2021/12/29 05:50:12;;;;;;;3.00;1.15;;;8.70;87.90;;;;;;5045471;28;20248;-83
2021/12/29 05:52:39;;;;;;;1.50;0.70;;;8.80;87.60;;;;;;5052333;28;20230;-84
2021/12/29 05:55:08;;;;;;;5.95;0.82;;;8.80;87.90;;;;;;5039519;28;20191;-82
2021/12/29 05:57:35;;;;;;;4.88;1.23;;;8.80;87.90;;;;;;5032533;28;20192;-84
2021/12/29 06:00:05;;;;;;;2.80;1.15;;;8.80;87.70;;;;;;5043395;28;20727;-82
2021/12/29 06:02:32;;;;;;;2.25;1.08;;;8.90;87.50;;;;;;5052443;28;20286;-83
2021/12/29 06:04:59;;;;;;;1.73;0.80;;;8.80;87.40;;;;;;5041619;28;20195;-84
2021/12/29 06:07:26;;;;;;;3.42;1.10;;;8.80;87.30;;;;;;5032463;28;20218;-84
2021/12/29 06:09:54;;;;;;;3.05;0.82;;;8.80;87.70;;;;;;5040993;28;20244;-84
2021/12/29 06:12:21;;;;;;;4.90;1.17;;;8.80;87.30;;;;;;5052264;28;20580;-84
2021/12/29 06:14:48;;;;;;;1.50;0.60;;;8.70;87.40;;;;;;5050400;28;20545;-83
2021/12/29 06:17:17;;;;;;;4.25;1.10;;;8.80;87.80;;;;;;5052258;28;20197;-84
2021/12/29 06:19:44;;;;;;;4.30;1.10;;;8.70;87.80;;;;;;5045338;28;20241;-83
2021/12/29 06:22:12;;;;;;;3.22;1.38;;;8.80;87.80;;;;;;5032247;28;20199;-83
2021/12/29 06:24:40;;;;;;;2.50;0.88;;;8.70;87.50;;;;;;5036971;28;20715;-83
2021/12/29 06:27:07;;;;;;;3.35;1.15;;;8.80;87.70;;;;;;5051936;28;20191;-83
2021/12/29 06:29:35;;;;;;;3.05;0.90;;;8.70;87.80;;;;;;5047907;28;20204;-83
2021/12/29 06:32:03;;;;;;;4.13;1.75;;;8.80;87.70;;;;;;5031633;28;20246;-84
2021/12/29 06:34:31;;;;;;;2.42;0.70;;;8.80;87.70;;;;;;5035443;28;20183;-83
2021/12/29 06:37:03;;;;;;;4.68;2.05;;;8.80;87.40;;;;;;5054601;28;20202;-83
2021/12/29 06:39:30;;;;;;;2.75;1.02;;;8.90;87.40;;;;;;5052405;28;20184;-84
2021/12/29 06:41:57;;;;;;;3.42;1.10;;;8.90;87.20;;;;;;5035894;28;20208;-84
2021/12/29 06:44:24;;;;;;;4.90;3.72;;;8.90;87.30;;;;;;5037260;28;21086;-84
2021/12/29 06:46:52;;;;;;;3.63;1.00;;;8.90;87.10;;;;;;5055829;28;20195;-84
2021/12/29 06:49:19;;;;;;;3.95;1.05;;;8.90;86.90;;;;;;5053803;28;20654;-84
2021/12/29 06:51:48;;;;;;;2.70;0.90;;;8.90;87.00;;;;;;5035566;28;20289;-84
2021/12/29 06:54:15;;;;;;;1.90;1.10;;;8.90;87.00;;;;;;5036010;28;20610;-84
2021/12/29 06:56:43;;;;;;;5.22;0.90;;;8.90;87.20;;;;;;5015848;28;20191;-84
2021/12/29 06:59:10;;;;;;;2.13;0.98;;;8.90;86.90;;;;;;5043643;28;20195;-83
2021/12/29 07:01:37;;;;;;;4.28;1.10;;;8.90;86.90;;;;;;5055338;28;20227;-83
2021/12/29 07:04:04;;;;;;;4.97;1.42;;;8.90;86.90;;;;;;5042284;28;20192;-83
2021/12/29 07:06:32;;;;;;;2.20;1.08;;;8.90;87.00;;;;;;5053942;28;20726;-81
2021/12/29 07:09:00;;;;;;;1.70;0.60;;;8.90;86.90;;;;;;5043388;28;20628;-84
2021/12/29 07:11:27;;;;;;;2.08;0.98;;;8.90;86.70;;;;;;5035124;28;20639;-84
2021/12/29 07:13:56;;;;;;;2.10;0.75;;;8.90;86.90;;;;;;5044971;28;20268;-84
2021/12/29 07:16:24;;;;;;;2.60;1.30;;;8.90;86.90;;;;;;5045936;28;20195;-84
2021/12/29 07:18:51;;;;;;;4.15;1.10;;;9.00;86.80;;;;;;5051459;28;20191;-84
2021/12/29 07:21:18;;;;;;;2.72;1.65;;;9.00;86.70;;;;;;5045775;28;20188;-84
2021/12/29 07:23:46;;;;;;;2.97;1.38;;;8.90;86.80;;;;;;5035104;28;20239;-83
2021/12/29 07:26:14;;;;;;;5.03;2.45;;;9.00;86.90;;;;;;5041276;28;20187;-83
2021/12/29 07:28:41;;;;;;;3.45;1.65;;;9.00;86.40;;;;;;5051113;28;20638;-82
2021/12/29 07:31:08;;;;;;;7.32;1.58;;;9.10;86.50;;;;;;5035157;28;20195;-83
2021/12/29 07:33:36;;;;;;;4.85;3.10;;;9.10;86.30;;;;;;5036038;28;20223;-84
2021/12/29 07:36:03;;;;;;;3.88;1.52;;;9.10;86.30;;;;;;5054006;28;20576;-84
2021/12/29 07:38:31;;;;;;;7.80;1.20;;;9.20;86.10;;;;;;5052839;28;20195;-84
2021/12/29 07:41:00;;;;;;;3.55;1.50;;;9.10;85.80;;;;;;5034511;28;20196;-84
2021/12/29 07:43:29;;;;;;;2.08;0.93;;;9.20;86.00;;;;;;5034322;28;20198;-82
2021/12/29 07:45:56;;;;;;;3.00;1.13;;;9.20;85.80;;;;;;5034607;28;20249;-83
2021/12/29 07:48:27;;;;;;;3.92;1.60;;;9.20;85.70;;;;;;5033242;28;20253;-83
2021/12/29 07:50:55;;;;;;;3.60;1.55;;;9.20;85.60;;;;;;5019244;28;20206;-84
2021/12/29 07:53:23;;;;;;;2.60;0.80;;;9.20;85.70;;;;;;5034306;28;20224;-84
2021/12/29 07:55:50;;;;;;;2.75;0.95;;;9.20;85.40;;;;;;5034558;28;20199;-84
2021/12/29 07:58:18;;;;;;;1.80;1.20;;;9.30;85.60;;;;;;5034397;28;20203;-83
2021/12/29 08:00:47;;;;;;;2.72;0.90;;;9.40;85.30;;;;;;5052503;28;20187;-83
2021/12/29 08:03:16;;;;;;;4.07;1.75;;;9.50;85.00;;;;;;5054311;28;20210;-83
2021/12/29 08:05:44;;;;;;;3.22;1.38;;;9.50;84.90;;;;;;5035508;28;20245;-83
2021/12/29 08:08:11;;;;;;;4.43;1.45;;;9.50;84.80;;;;;;5040329;28;20194;-84
2021/12/29 08:10:39;;;;;;;5.45;1.55;;;9.60;84.80;;;;;;5054110;28;20190;-83
2021/12/29 08:13:08;;;;;;;2.35;1.00;;;9.60;84.80;;;;;;5045732;28;20222;-83
2021/12/29 08:15:36;;;;;;;4.05;1.83;;;9.60;84.70;;;;;;5033959;28;20191;-83
2021/12/29 08:18:06;;;;;;;6.15;1.80;;;9.60;85.00;;;;;;5040243;28;20187;-83
2021/12/29 08:20:35;;;;;;;6.80;1.50;;;9.60;84.90;;;;;;5053837;28;20198;-83
2021/12/29 08:23:04;;;;;;;4.68;2.60;;;9.60;85.40;;;;;;5047348;28;20187;-83
2021/12/29 08:25:31;;;;;;;8.93;2.67;;;9.50;86.00;;;;;;5033841;28;20630;-83
2021/12/29 08:27:58;;;;;;;3.13;1.00;;;9.60;86.30;;;;;;5039032;28;20202;-84
2021/12/29 08:30:26;;;;;;;5.13;1.42;;;9.70;86.60;;;;;;5053483;28;20272;-84
2021/12/29 08:32:53;;;;;;;5.38;1.40;;;9.80;86.70;;;;;;5038789;28;20265;-84
2021/12/29 08:35:22;;;;;;;5.85;1.65;;;9.90;86.40;;;;;;5013444;28;20188;-84
2021/12/29 08:37:51;;;;;;;5.22;1.40;;;10.10;84.70;;;;;;5018022;28;20191;-83
2021/12/29 08:40:18;;;;;;;6.07;1.77;;;10.20;84.10;;;;;;5013210;28;20605;-83
2021/12/29 08:42:48;;;;;;;8.45;1.40;;;10.40;83.10;;;;;;5026247;28;20184;-81
2021/12/29 08:45:18;;;;;;;6.20;2.33;;;10.60;81.60;;;;;;5030146;28;20605;-82
2021/12/29 08:47:45;;;;;;;4.68;1.63;;;10.80;80.80;;;;;;5028987;28;20237;-82
2021/12/29 08:50:16;;;;;;;5.15;1.60;;;11.10;79.80;;;;;;5017627;28;20192;-82
2021/12/29 08:52:45;;;;;;;7.05;2.00;;;11.20;77.30;;;;;;5012935;28;20230;-75
2021/12/29 08:55:14;;;;;;;4.40;2.08;;;11.50;76.10;;;;;;5021171;28;20302;-82
2021/12/29 08:57:42;;;;;;;6.43;2.30;;;11.90;75.10;;;;;;5016089;28;20605;-82
2021/12/29 09:00:12;;;;;;;4.35;1.55;;;12.10;73.00;;;;;;5014561;28;20246;-80
2021/12/29 09:02:40;;;;;;;5.83;1.70;;;12.10;71.80;;;;;;5018219;28;20247;-82
2021/12/29 09:05:08;;;;;;;5.13;1.97;;;12.40;72.30;;;;;;5013073;28;20453;-81
2021/12/29 09:07:35;;;;;;;8.67;1.50;;;12.80;69.60;;;;;;5017933;28;20439;-80
2021/12/29 09:10:07;;;;;;;5.30;1.37;;;13.10;69.20;;;;;;5013195;28;20443;-77
2021/12/29 09:12:34;;;;;;;4.20;1.50;;;13.40;67.50;;;;;;5019602;28;20438;-81
2021/12/29 09:15:01;;;;;;;4.20;1.40;;;13.70;65.70;;;;;;5012783;28;20490;-81
2021/12/29 09:17:29;;;;;;;6.00;1.90;;;14.10;66.00;;;;;;5020407;28;20427;-80
2021/12/29 09:19:56;;;;;;;5.00;1.50;;;14.50;64.30;;;;;;5019375;28;20906;-81
2021/12/29 09:22:23;;;;;;;5.50;1.57;;;14.90;63.50;;;;;;5023214;28;20442;-82
2021/12/29 09:24:50;;;;;;;5.27;1.50;;;15.20;59.70;;;;;;5022153;28;20814;-81
2021/12/29 09:27:19;;;;;;;9.80;1.70;;;15.40;59.10;;;;;;5012546;28;20494;-81
2021/12/29 09:29:46;;;;;;;6.37;2.03;;;15.80;58.60;;;;;;5014723;28;20431;-81
2021/12/29 09:32:13;;;;;;;2.80;1.00;;;16.10;55.70;;;;;;5020946;28;20439;-82
2021/12/29 09:34:40;;;;;;;11.60;1.70;;;16.30;55.60;;;;;;5012566;28;20536;-83
2021/12/29 09:37:08;;;;;;;3.93;1.47;;;16.50;55.00;;;;;;5026144;28;20466;-83
2021/12/29 09:39:35;;;;;;;11.03;1.77;;;16.60;54.40;;;;;;5020048;28;20439;-82
2021/12/29 09:42:03;;;;;;;5.00;1.23;;;16.50;52.50;;;;;;5022071;28;20446;-74
2021/12/29 09:44:32;;;;;;;4.37;1.93;;;16.50;53.80;;;;;;5012592;28;20463;-75
2021/12/29 09:47:00;;;;;;;4.03;1.17;;;16.60;52.80;;;;;;5016046;28;20457;-74
2021/12/29 09:49:27;;;;;;;6.03;1.60;;;16.60;52.20;;;;;;5012503;28;20446;-75
2021/12/29 09:51:54;;;;;;;4.77;1.70;;;16.50;52.50;;;;;;5018119;28;20463;-75
2021/12/29 09:54:21;;;;;;;5.97;1.40;;;16.50;52.10;;;;;;5012199;28;20526;-74
2021/12/29 09:56:48;;;;;;;6.03;1.57;;;16.60;51.10;;;;;;5018092;28;20848;-74
2021/12/29 09:59:15;;;;;;;6.63;1.50;;;16.60;51.50;;;;;;5012884;28;20526;-75
2021/12/29 10:01:44;;;;;;;4.97;1.23;;;16.60;50.90;;;;;;5017323;28;20997;-75
2021/12/29 10:04:13;;;;;;;3.50;1.07;;;16.60;51.20;;;;;;5012060;28;20443;-74
2021/12/29 10:06:40;;;;;;;4.53;1.60;;;16.90;50.90;;;;;;5023385;28;20848;-74
2021/12/29 10:09:13;;;;;;;4.87;1.77;;;17.40;50.90;;;;;;5029675;28;20521;-75
2021/12/29 10:11:41;;;;;;;3.30;1.30;;;17.90;49.50;;;;;;5022772;28;20435;-75
2021/12/29 10:14:09;;;;;;;5.20;1.57;;;18.50;48.40;;;;;;5015952;28;20566;-74
2021/12/29 10:16:37;;;;;;;7.30;1.47;;;18.40;47.10;;;;;;5029819;28;20523;-74
2021/12/29 10:19:08;;;;;;;5.33;1.73;;;18.10;46.50;;;;;;5033083;28;20517;-74
2021/12/29 10:21:37;;;;;;;3.40;1.20;;;18.10;47.20;;;;;;5029148;28;20935;-72
2021/12/29 10:24:04;;;;;;;2.80;1.20;;;18.10;46.40;;;;;;5033293;28;20956;-74
2021/12/29 10:26:34;;;;;;;4.50;1.43;;;17.90;45.90;;;;;;5033116;28;20470;-74
2021/12/29 10:29:07;;;;;;;5.90;1.90;;;17.60;45.20;;;;;;5029834;28;20824;-75
2021/12/29 10:31:38;;;;;;;5.40;1.87;;;17.40;46.20;;;;;;5033360;28;20477;-75
2021/12/29 10:34:07;;;;;;;6.57;2.10;;;17.40;46.90;;;;;;5024110;28;20541;-74
2021/12/29 10:36:39;;;;;;;5.87;1.47;;;17.40;47.10;;;;;;5015749;28;20514;-74
2021/12/29 10:39:11;;;;;;;8.00;1.70;;;17.30;45.70;;;;;;5018300;28;20456;-73
2021/12/29 10:41:49;;;;;;;6.70;2.10;;;17.00;46.60;;;;;;5019285;28;20470;-73
2021/12/29 10:44:24;;;;;;;5.00;1.63;;;16.70;46.80;;;;;;5025713;28;20466;-75
2021/12/29 10:46:52;;;;;;;6.03;1.97;;;16.40;47.50;;;;;;5029682;28;20580;-75
2021/12/29 10:49:21;;;;;;;5.93;1.60;;;16.30;48.20;;;;;;5031623;28;20453;-75
2021/12/29 10:51:48;;;;;;;3.60;1.03;;;16.20;47.70;;;;;;5032680;28;20568;-75
2021/12/29 10:54:16;;;;;;;4.23;1.43;;;16.20;47.90;;;;;;5030025;28;20517;-75
2021/12/29 10:56:45;;;;;;;6.10;1.90;;;16.20;48.60;;;;;;5026549;28;20530;-74
2021/12/29 10:59:18;;;;;;;7.20;3.10;;;16.10;48.10;;;;;;5013956;28;20537;-75
2021/12/29 11:01:45;;;;;;;5.40;1.63;;;15.90;48.20;;;;;;5014073;28;20438;-74
2021/12/29 11:04:15;;;;;;;5.57;1.70;;;15.60;47.90;;;;;;5013963;28;20538;-74
2021/12/29 11:06:46;;;;;;;6.40;1.67;;;15.40;49.00;;;;;;5021110;28;20445;-73
2021/12/29 11:09:16;;;;;;;6.40;2.27;;;15.30;49.60;;;;;;5030625;28;21028;-74
2021/12/29 11:11:45;;;;;;;3.83;1.60;;;15.20;50.00;;;;;;5024866;28;20475;-74
2021/12/29 11:14:14;;;;;;;8.60;1.83;;;15.10;49.90;;;;;;5013389;28;20501;-74
2021/12/29 11:16:42;;;;;;;10.40;1.83;;;15.00;49.50;;;;;;5018392;28;20517;-74
2021/12/29 11:19:10;;;;;;;5.70;1.50;;;14.90;49.70;;;;;;5031423;28;20999;-74
2021/12/29 11:21:39;;;;;;;5.90;1.70;;;14.90;50.30;;;;;;5029144;28;20453;-74
2021/12/29 11:24:17;;;;;;;5.00;2.07;;;15.00;50.80;;;;;;5013641;28;20536;-73
2021/12/29 11:26:45;;;;;;;3.50;1.90;;;15.00;50.40;;;;;;5028424;28;20442;-74
2021/12/29 11:29:14;;;;;;;6.43;2.03;;;15.10;50.40;;;;;;5032195;28;20454;-74
2021/12/29 11:31:44;;;;;;;9.47;1.80;;;15.20;50.60;;;;;;5013629;28;20926;-74
2021/12/29 11:34:20;;;;;;;4.43;1.47;;;15.10;49.50;;;;;;5013499;28;20839;-74
2021/12/29 11:37:01;;;;;;;6.73;1.63;;;15.00;49.80;;;;;;5029973;28;20445;-73
2021/12/29 11:39:31;;;;;;;4.90;1.73;;;14.90;50.10;;;;;;5015226;28;20470;-75
2021/12/29 11:41:58;;;;;;;8.10;1.80;;;14.90;50.30;;;;;;5030718;28;21001;-75
2021/12/29 11:44:25;;;;;;;4.30;1.10;;;14.80;50.40;;;;;;5026373;28;20449;-74
2021/12/29 11:46:52;;;;;;;6.63;2.63;;;14.70;50.10;;;;;;5030249;28;20453;-75
2021/12/29 11:49:20;;;;;;;9.33;1.63;;;14.50;50.30;;;;;;5030273;28;20533;-74
2021/12/29 11:51:58;;;;;;;3.60;1.30;;;14.40;50.40;;;;;;5029755;28;20553;-73
2021/12/29 11:54:35;;;;;;;3.00;1.40;;;14.40;50.90;;;;;;5029098;28;20570;-74
2021/12/29 11:57:14;;;;;;;4.20;1.40;;;14.30;51.20;;;;;;5029666;28;20537;-74
2021/12/29 11:59:44;;;;;;;5.17;2.40;;;14.30;51.30;;;;;;5031266;28;20437;-73
2021/12/29 12:02:11;;;;;;;4.63;1.87;;;14.40;51.20;;;;;;5029212;28;20447;-74
2021/12/29 12:04:38;;;;;;;4.00;1.53;;;14.40;51.10;;;;;;5019006;28;20518;-73
2021/12/29 12:07:10;;;;;;;7.03;1.90;;;14.40;51.10;;;;;;5013505;28;20479;-74
2021/12/29 12:09:50;;;;;;;5.40;1.70;;;14.30;50.80;;;;;;5020716;28;20439;-74
2021/12/29 12:12:20;;;;;;;3.83;1.40;;;14.30;51.10;;;;;;5028027;28;20524;-75
2021/12/29 12:14:58;;;;;;;3.80;1.70;;;14.30;51.20;;;;;;5029400;28;20509;-73
2021/12/29 12:17:27;;;;;;;6.10;1.83;;;14.40;51.60;;;;;;5013685;28;20550;-74
2021/12/29 12:20:02;;;;;;;4.43;1.10;;;14.30;51.10;;;;;;5027822;28;20449;-74
2021/12/29 12:22:45;;;;;;;3.67;1.27;;;14.30;51.10;;;;;;5019587;28;20438;-74
2021/12/29 12:25:18;;;;;;;3.50;1.17;;;14.20;51.20;;;;;;5028770;28;20537;-73
2021/12/29 12:27:48;;;;;;;3.87;1.47;;;14.10;51.30;;;;;;5031270;28;20454;-74
2021/12/29 12:30:20;;;;;;;2.97;1.40;;;14.10;51.50;;;;;;5017972;28;20937;-74
2021/12/29 12:32:49;;;;;;;4.27;1.33;;;14.00;51.80;;;;;;5014428;28;20453;-73
2021/12/29 12:35:30;;;;;;;2.93;1.27;;;13.90;51.70;;;;;;5014992;28;21053;-74
2021/12/29 12:38:15;;;;;;;4.43;1.17;;;13.70;51.90;;;;;;5025808;28;20533;-74
2021/12/29 12:40:45;;;;;;;6.10;1.20;;;13.70;52.00;;;;;;5029631;28;20537;-72
2021/12/29 12:43:15;;;;;;;4.03;1.10;;;13.60;52.20;;;;;;5016732;28;20940;-74
2021/12/29 12:45:45;;;;;;;3.93;1.57;;;13.60;52.30;;;;;;5017199;28;20554;-74
2021/12/29 12:48:14;;;;;;;5.30;1.70;;;13.50;52.00;;;;;;5018211;28;20888;-73
2021/12/29 12:50:44;;;;;;;6.57;2.00;;;13.50;52.50;;;;;;5021180;28;20522;-74
2021/12/29 12:53:14;;;;;;;8.27;2.00;;;13.50;52.50;;;;;;5018703;28;20493;-74
2021/12/29 12:55:51;;;;;;;2.43;0.97;;;13.60;52.50;;;;;;5029665;28;20486;-73
2021/12/29 12:58:20;;;;;;;3.10;1.43;;;13.60;52.60;;;;;;5020682;28;20442;-74
2021/12/29 13:00:56;;;;;;;2.47;0.80;;;13.60;52.70;;;;;;5020878;28;20462;-74
2021/12/29 13:03:25;;;;;;;2.20;1.00;;;13.60;52.50;;;;;;5027849;28;20434;-73
2021/12/29 13:05:55;;;;;;;3.17;1.03;;;13.60;52.50;;;;;;5031311;28;20783;-74
2021/12/29 13:08:24;;;;;;;3.37;1.20;;;13.60;52.30;;;;;;5028999;28;20853;-73
2021/12/29 13:10:55;;;;;;;3.40;1.50;;;13.60;52.70;;;;;;5026159;28;20498;-74